Time;durP1;ratioP1;P1;durP2;ratioP2;P2;SDS_P1;SDS_P2;PMS_P1;PMS_P2;Temp;Humidity;BMP_temperature;BMP_pressure;BME280_temperature;BME280_humidity;BME280_pressure;Samples;Min_cycle;Max_cycle;Signal;HPM_P1;HPM_P2
2024/01/31 00:00:56;;;;;;;1999.90;999.90;;;;;;;-5.90;71.94;98168.97;5117344;28;20047;-67
2024/01/31 00:03:23;;;;;;;1999.90;999.90;;;;;;;-6.06;72.56;98174.97;5117244;28;20139;-67
2024/01/31 00:05:51;;;;;;;1999.90;999.90;;;;;;;-6.15;73.46;98167.69;5117264;28;20089;-65
2024/01/31 00:08:18;;;;;;;1999.90;999.90;;;;;;;-6.11;73.59;98177.25;5117145;28;20131;-63
2024/01/31 00:10:45;;;;;;;1999.90;999.90;;;;;;;-6.03;73.63;98177.63;5116982;28;20047;-64
2024/01/31 00:13:12;;;;;;;1999.90;999.90;;;;;;;-5.98;73.15;98179.66;5117033;28;20451;-66
2024/01/31 00:15:39;;;;;;;1999.90;999.90;;;;;;;-5.91;72.90;98180.84;5117100;28;20139;-64
2024/01/31 00:18:07;;;;;;;1999.90;999.90;;;;;;;-5.87;73.00;98187.84;5116953;28;20109;-65
2024/01/31 00:20:34;;;;;;;1999.90;999.90;;;;;;;-5.83;72.86;98194.00;5116878;28;20044;-66
2024/01/31 00:23:02;;;;;;;1999.90;999.90;;;;;;;-5.91;72.69;98180.84;5116791;28;20054;-65
2024/01/31 00:25:29;;;;;;;1999.90;999.90;;;;;;;-6.07;71.82;98186.81;5116890;28;20082;-65
2024/01/31 00:27:56;;;;;;;1999.90;999.90;;;;;;;-6.31;72.24;98182.16;5117016;28;20044;-62
2024/01/31 00:30:23;;;;;;;1999.90;999.90;;;;;;;-6.35;72.36;98177.69;5116772;28;20080;-65
2024/01/31 00:32:50;;;;;;;1999.90;999.90;;;;;;;-6.39;72.48;98170.63;5116443;28;20054;-65
2024/01/31 00:35:17;;;;;;;1999.90;999.90;;;;;;;-6.48;73.04;98187.19;5116618;28;20043;-64
2024/01/31 00:37:44;;;;;;;1999.90;999.90;;;;;;;-6.53;73.30;98180.06;5116645;28;20040;-65
2024/01/31 00:40:14;;;;;;;1999.90;999.90;;;;;;;-6.53;73.51;98175.84;5116642;28;20120;-65
2024/01/31 00:42:42;;;;;;;1999.90;999.90;;;;;;;-6.50;73.37;98176.00;5116557;28;20055;-63
2024/01/31 00:45:11;;;;;;;1999.90;999.90;;;;;;;-6.54;73.50;98181.75;5116476;28;20122;-65
2024/01/31 00:47:38;;;;;;;1999.90;999.90;;;;;;;-6.55;73.85;98182.53;5116551;28;20135;-63
2024/01/31 00:50:23;;;;;;;1999.90;999.90;;;;;;;-6.73;73.81;98177.28;5116471;28;20039;-63
2024/01/31 00:52:50;;;;;;;1999.90;999.90;;;;;;;-6.71;74.89;98180.81;5116255;28;20055;-62
2024/01/31 00:55:18;;;;;;;1999.90;999.90;;;;;;;-6.65;75.36;98176.03;5116204;28;20085;-62
2024/01/31 00:57:46;;;;;;;1999.90;999.90;;;;;;;-6.60;74.29;98181.38;5116229;28;20039;-67
2024/01/31 01:00:14;;;;;;;1999.90;999.90;;;;;;;-6.68;75.47;98185.19;5116409;28;20043;-63
2024/01/31 01:02:41;;;;;;;1999.90;999.90;;;;;;;-6.54;76.88;98180.88;5116086;28;20061;-62
2024/01/31 01:05:09;;;;;;;1999.90;999.90;;;;;;;-6.60;76.10;98173.75;5116025;28;20131;-62
2024/01/31 01:07:38;;;;;;;1999.90;999.90;;;;;;;-6.61;75.18;98172.00;5115833;28;20466;-65
2024/01/31 01:10:07;;;;;;;1999.90;999.90;;;;;;;-6.72;74.50;98174.81;5116038;28;20108;-66
2024/01/31 01:12:35;;;;;;;1999.90;999.90;;;;;;;-6.79;74.39;98164.19;5115975;28;20500;-64
2024/01/31 01:15:02;;;;;;;1999.90;999.90;;;;;;;-6.89;74.42;98160.28;5116041;28;20052;-64
2024/01/31 01:17:29;;;;;;;1999.90;999.90;;;;;;;-6.91;74.61;98160.19;5115752;28;20135;-63
2024/01/31 01:19:56;;;;;;;1999.90;999.90;;;;;;;-6.99;75.17;98156.31;5115831;28;20176;-64
2024/01/31 01:22:23;;;;;;;1999.90;999.90;;;;;;;-7.05;75.08;98149.19;5115629;28;20400;-62
2024/01/31 01:24:50;;;;;;;1999.90;999.90;;;;;;;-7.02;75.41;98151.91;5115704;28;20086;-64
2024/01/31 01:27:17;;;;;;;1999.90;999.90;;;;;;;-6.92;75.96;98153.34;5116086;28;20513;-65
2024/01/31 01:29:46;;;;;;;1999.90;999.90;;;;;;;-6.88;75.83;98160.34;5115473;28;20059;-65
2024/01/31 01:32:13;;;;;;;1999.90;999.90;;;;;;;-6.81;76.00;98160.72;5115385;28;20044;-65
2024/01/31 01:34:41;;;;;;;1999.90;999.90;;;;;;;-6.71;76.63;98150.25;5115374;28;20082;-64
2024/01/31 01:37:09;;;;;;;1999.90;999.90;;;;;;;-6.66;75.55;98145.41;5115464;28;20043;-63
2024/01/31 01:39:37;;;;;;;1999.90;999.90;;;;;;;-6.69;74.70;98147.78;5115437;28;20079;-65
2024/01/31 01:42:04;;;;;;;1999.90;999.90;;;;;;;-6.84;74.75;98148.66;5115507;28;20047;-64
2024/01/31 01:44:34;;;;;;;1999.90;999.90;;;;;;;-6.95;75.11;98149.72;5115367;28;20054;-64
2024/01/31 01:47:03;;;;;;;1999.90;999.90;;;;;;;-7.00;74.49;98147.81;5115307;28;20048;-65
2024/01/31 01:49:30;;;;;;;1999.90;999.90;;;;;;;-7.14;75.19;98148.66;5115333;28;20040;-63
2024/01/31 01:51:57;;;;;;;1999.90;999.90;;;;;;;-7.14;75.92;98143.56;5115059;28;20055;-64
2024/01/31 01:54:25;;;;;;;1999.90;999.90;;;;;;;-7.18;75.93;98144.19;5114992;28;20075;-63
2024/01/31 01:56:54;;;;;;;1999.90;999.90;;;;;;;-7.17;76.32;98139.19;5115117;28;20509;-62
2024/01/31 01:59:22;;;;;;;1999.90;999.90;;;;;;;-7.23;76.77;98141.38;5114866;28;20056;-65
2024/01/31 02:01:49;;;;;;;1999.90;999.90;;;;;;;-7.14;77.95;98141.03;5115167;28;20075;-64
2024/01/31 02:04:18;;;;;;;1999.90;999.90;;;;;;;-7.00;79.74;98131.66;5115321;28;20115;-64
2024/01/31 02:06:45;;;;;;;1999.90;999.90;;;;;;;-6.89;80.19;98128.03;5115330;28;20048;-65
2024/01/31 02:09:13;;;;;;;1999.90;999.90;;;;;;;-6.93;78.18;98133.75;5114922;28;20805;-64
2024/01/31 02:11:40;;;;;;;1999.90;999.90;;;;;;;-7.03;77.50;98134.91;5114743;28;20409;-63
2024/01/31 02:14:07;;;;;;;1999.90;999.90;;;;;;;-7.06;77.80;98137.28;5114789;28;20051;-65
2024/01/31 02:16:34;;;;;;;1999.90;999.90;;;;;;;-6.97;77.39;98136.91;5114652;28;20050;-66
2024/01/31 02:19:01;;;;;;;1999.90;999.90;;;;;;;-6.86;77.18;98129.91;5113988;28;20574;-63
2024/01/31 02:21:31;;;;;;;1999.90;999.90;;;;;;;-6.82;76.30;98128.38;5114344;28;20048;-63
2024/01/31 02:23:59;;;;;;;1999.90;999.90;;;;;;;-6.96;75.19;98117.44;5114544;28;20048;-65
2024/01/31 02:26:26;;;;;;;1999.90;999.90;;;;;;;-7.12;75.87;98119.09;5114520;28;20048;-65
2024/01/31 02:28:53;;;;;;;1999.90;999.90;;;;;;;-7.20;75.59;98105.09;5114379;28;20079;-66
2024/01/31 02:31:20;;;;;;;1999.90;999.90;;;;;;;-7.26;75.72;98108.13;5114444;28;20435;-65
2024/01/31 02:34:42;;;;;;;1999.90;999.90;;;;;;;-7.24;75.55;98104.00;5114362;28;20051;-65
2024/01/31 02:37:09;;;;;;;1999.90;999.90;;;;;;;-7.23;75.42;98109.19;5114531;28;20051;-63
2024/01/31 02:39:37;;;;;;;1999.90;999.90;;;;;;;-7.18;74.98;98109.47;5114481;28;20039;-63
2024/01/31 02:42:05;;;;;;;1999.90;999.90;;;;;;;-7.21;75.36;98109.28;5114133;28;20048;-64
2024/01/31 02:44:32;;;;;;;1999.90;999.90;;;;;;;-7.14;75.24;98108.84;5114081;28;20577;-64
2024/01/31 02:46:59;;;;;;;1999.90;999.90;;;;;;;-7.15;75.49;98106.22;5114233;28;20043;-63
2024/01/31 02:49:26;;;;;;;1999.90;999.90;;;;;;;-7.24;75.43;98102.34;5114018;28;20040;-64
2024/01/31 02:51:53;;;;;;;1999.90;999.90;;;;;;;-7.24;75.46;98102.34;5113988;28;20039;-67
2024/01/31 02:54:20;;;;;;;1999.90;999.90;;;;;;;-7.31;75.14;98100.25;5113472;28;20059;-65
2024/01/31 02:56:49;;;;;;;1999.90;999.90;;;;;;;-7.29;75.16;98093.56;5113130;28;20142;-63
2024/01/31 02:59:16;;;;;;;1999.90;999.90;;;;;;;-7.29;75.67;98101.19;5113164;28;20044;-65
2024/01/31 03:01:46;;;;;;;1999.90;999.90;;;;;;;-7.27;76.16;98102.19;5113128;28;20094;-65
2024/01/31 03:04:13;;;;;;;1999.90;999.90;;;;;;;-7.33;76.31;98098.38;5113186;28;20404;-65
2024/01/31 03:06:40;;;;;;;1999.90;999.90;;;;;;;-7.34;77.50;98096.66;5113006;28;20090;-65
2024/01/31 03:09:07;;;;;;;1999.90;999.90;;;;;;;-7.34;77.49;98099.19;5113042;28;20047;-66
2024/01/31 03:11:33;;;;;;;1999.90;999.90;;;;;;;-7.42;77.55;98098.75;5113130;28;20127;-65
2024/01/31 03:14:02;;;;;;;1999.90;999.90;;;;;;;-7.42;78.01;98099.63;5112956;28;20069;-65
2024/01/31 03:16:29;;;;;;;1999.90;999.90;;;;;;;-7.33;78.29;98091.66;5112926;28;20135;-65
2024/01/31 03:18:58;;;;;;;1999.90;999.90;;;;;;;-7.29;77.44;98087.63;5113040;28;20123;-64
2024/01/31 03:21:25;;;;;;;1999.90;999.90;;;;;;;-7.28;76.79;98091.91;5112893;28;20093;-65
2024/01/31 03:23:52;;;;;;;1999.90;999.90;;;;;;;-7.27;76.37;98091.13;5112783;28;20371;-65
2024/01/31 03:26:19;;;;;;;1999.90;999.90;;;;;;;-7.29;76.53;98088.47;5112778;28;20052;-63
2024/01/31 03:28:46;;;;;;;1999.90;999.90;;;;;;;-7.29;76.69;98085.94;5112949;28;20148;-64
2024/01/31 03:31:15;;;;;;;1999.90;999.90;;;;;;;-7.25;76.16;98082.78;5111363;28;20075;-64
2024/01/31 03:33:42;;;;;;;1999.90;999.90;;;;;;;-7.28;75.72;98082.63;5112639;28;20124;-62
2024/01/31 03:36:11;;;;;;;1999.90;999.90;;;;;;;-7.34;75.72;98084.81;5112678;28;20040;-63
2024/01/31 03:38:38;;;;;;;1999.90;999.90;;;;;;;-7.38;75.65;98086.28;5112505;28;20054;-64
2024/01/31 03:41:06;;;;;;;1999.90;999.90;;;;;;;-7.49;75.16;98083.13;5112474;28;20043;-66
2024/01/31 03:43:33;;;;;;;1999.90;999.90;;;;;;;-7.59;74.85;98085.06;5112362;28;20138;-64
2024/01/31 03:46:00;;;;;;;1999.90;999.90;;;;;;;-7.71;74.75;98086.06;5112708;28;20054;-62
2024/01/31 03:48:29;;;;;;;1999.90;999.90;;;;;;;-7.77;74.99;98084.06;5112776;28;20155;-65
2024/01/31 03:50:58;;;;;;;1999.90;999.90;;;;;;;-7.78;75.25;98078.88;5112259;28;20054;-64
2024/01/31 03:53:25;;;;;;;1999.90;999.90;;;;;;;-7.75;75.77;98079.94;5112143;28;20048;-64
2024/01/31 03:55:52;;;;;;;1999.90;999.90;;;;;;;-7.77;75.97;98086.59;5065657;28;1331420;-62
2024/01/31 03:58:19;;;;;;;1999.90;999.90;;;;;;;-7.77;75.66;98078.97;5113333;28;20079;-66
2024/01/31 04:00:47;;;;;;;1999.90;999.90;;;;;;;-7.87;75.47;98082.66;5113292;28;20047;-66
2024/01/31 04:03:14;;;;;;;1999.90;999.90;;;;;;;-7.93;75.29;98074.66;5113067;28;20409;-65
2024/01/31 04:05:43;;;;;;;1999.90;999.90;;;;;;;-7.96;75.67;98073.56;5113170;28;20047;-64
2024/01/31 04:08:10;;;;;;;1999.90;999.90;;;;;;;-7.91;75.58;98079.81;5113206;28;20462;-65
2024/01/31 04:10:38;;;;;;;1999.90;999.90;;;;;;;-7.89;75.58;98079.13;5113020;28;20410;-62
2024/01/31 04:13:05;;;;;;;1999.90;999.90;;;;;;;-7.94;75.63;98083.06;5112878;28;20404;-64
2024/01/31 04:15:32;;;;;;;1999.90;999.90;;;;;;;-7.97;76.17;98082.88;5113016;28;20047;-64
2024/01/31 04:18:00;;;;;;;1999.90;999.90;;;;;;;-7.96;76.63;98078.66;5113321;28;20122;-64
2024/01/31 04:20:27;;;;;;;1999.90;999.90;;;;;;;-8.08;76.99;98083.88;5113210;28;20052;-62
2024/01/31 04:22:56;;;;;;;1999.90;999.90;;;;;;;-8.12;77.89;98078.63;5112994;28;20079;-63
2024/01/31 04:25:26;;;;;;;1999.90;999.90;;;;;;;-8.07;77.90;98086.53;5113054;28;20047;-67
2024/01/31 04:27:53;;;;;;;1999.90;999.90;;;;;;;-7.97;77.87;98087.97;5113100;28;20135;-65
2024/01/31 04:30:20;;;;;;;1999.90;999.90;;;;;;;-8.01;77.59;98083.50;5113147;28;20048;-64
2024/01/31 04:32:47;;;;;;;1999.90;999.90;;;;;;;-8.00;77.02;98082.69;5112751;28;20059;-65
2024/01/31 04:35:14;;;;;;;1999.90;999.90;;;;;;;-8.05;76.63;98087.50;5112799;28;20058;-65
2024/01/31 04:37:41;;;;;;;1999.90;999.90;;;;;;;-8.02;76.53;98085.16;5112974;28;20051;-65
2024/01/31 04:40:12;;;;;;;1999.90;999.90;;;;;;;-8.07;76.89;98083.97;5112843;28;20432;-63
2024/01/31 04:42:38;;;;;;;;;;;;;;;-8.14;76.95;98084.41;5116096;28;20043;-65
2024/01/31 04:45:08;;;;;;;1999.90;999.90;;;;;;;-8.08;77.66;98078.81;5116530;28;20373;-65
2024/01/31 04:47:35;;;;;;;1999.90;999.90;;;;;;;-8.07;77.19;98081.44;5116486;28;20401;-64
2024/01/31 04:50:02;;;;;;;1999.90;999.90;;;;;;;-8.19;77.53;98080.72;5116579;28;20051;-63
2024/01/31 04:52:30;;;;;;;1999.90;999.90;;;;;;;-8.24;78.30;98085.50;5116328;28;20070;-63
2024/01/31 04:54:57;;;;;;;1999.90;999.90;;;;;;;-8.25;78.30;98086.31;5116221;28;20055;-63
2024/01/31 04:57:26;;;;;;;1999.90;999.90;;;;;;;-8.19;78.96;98089.19;5116465;28;20474;-65
2024/01/31 04:59:53;;;;;;;1999.90;999.90;;;;;;;-8.10;78.62;98085.47;5116369;28;20047;-68
2024/01/31 05:02:21;;;;;;;1999.90;999.90;;;;;;;-8.06;77.90;98082.31;5116101;28;20496;-64
2024/01/31 05:04:49;;;;;;;1999.90;999.90;;;;;;;-8.04;77.06;98086.72;5116143;28;20046;-63
2024/01/31 05:07:16;;;;;;;1999.90;999.90;;;;;;;-8.11;76.82;98079.50;5116004;28;20405;-65
2024/01/31 05:09:43;;;;;;;1999.90;999.90;;;;;;;-8.12;76.77;98083.69;5115962;28;20126;-62
2024/01/31 05:12:11;;;;;;;1999.90;999.90;;;;;;;-8.06;76.60;98078.13;5116159;28;20047;-65
2024/01/31 05:14:40;;;;;;;1999.90;999.90;;;;;;;-8.07;76.19;98083.97;5115975;28;20058;-63
2024/01/31 05:17:07;;;;;;;1999.90;999.90;;;;;;;-8.11;76.07;98082.03;5115904;28;20075;-65
2024/01/31 05:19:34;;;;;;;1999.90;999.90;;;;;;;-8.13;76.07;98078.56;5115834;28;20097;-65
2024/01/31 05:22:02;;;;;;;1999.90;999.90;;;;;;;-8.18;76.33;98082.47;5116068;28;20082;-64
2024/01/31 05:24:32;;;;;;;1999.90;999.90;;;;;;;-8.38;76.41;98052.53;5115669;28;20058;-62
2024/01/31 05:27:03;;;;;;;1999.90;999.90;;;;;;;-8.30;78.02;98080.94;5115821;28;20044;-64
2024/01/31 05:29:31;;;;;;;1999.90;999.90;;;;;;;-8.34;79.40;98083.19;5115457;28;20047;-63
2024/01/31 05:32:01;;;;;;;1999.90;999.90;;;;;;;-8.30;80.26;98087.69;5115652;28;20505;-64
2024/01/31 05:34:33;;;;;;;1999.90;999.90;;;;;;;-8.26;79.64;98082.88;5115473;28;20481;-64
2024/01/31 05:37:04;;;;;;;1999.90;999.90;;;;;;;-8.25;79.46;98087.16;5115790;28;20118;-63
2024/01/31 05:39:33;;;;;;;1999.90;999.90;;;;;;;-8.22;79.13;98086.47;5115331;28;20051;-64
2024/01/31 05:42:02;;;;;;;1999.90;999.90;;;;;;;-8.26;79.58;98089.63;5115364;28;20050;-62
2024/01/31 05:44:31;;;;;;;1999.90;999.90;;;;;;;-8.26;79.37;98092.16;5115484;28;20122;-62
2024/01/31 05:47:00;;;;;;;1999.90;999.90;;;;;;;-8.16;80.62;98086.84;5115256;28;20048;-67
2024/01/31 05:49:28;;;;;;;1999.90;999.90;;;;;;;-8.04;80.55;98086.72;5115328;28;20059;-62
2024/01/31 05:51:55;;;;;;;1999.90;999.90;;;;;;;-8.00;79.91;98087.78;5115082;28;20481;-63
2024/01/31 05:54:23;;;;;;;1999.90;999.90;;;;;;;-8.02;79.58;98091.88;5113995;28;20667;-65
2024/01/31 05:56:52;;;;;;;1999.90;999.90;;;;;;;-8.01;79.78;98091.97;5115232;28;20072;-62
2024/01/31 05:59:20;;;;;;;1999.90;999.90;;;;;;;-8.01;79.62;98091.97;5115134;28;20135;-63
2024/01/31 06:01:47;;;;;;;1999.90;999.90;;;;;;;-7.96;79.34;98087.16;5114925;28;20044;-65
2024/01/31 06:04:17;;;;;;;1999.90;999.90;;;;;;;-7.90;78.94;98097.72;5114847;28;20043;-63
2024/01/31 06:06:44;;;;;;;1999.90;999.90;;;;;;;-7.81;78.78;98099.03;5114852;28;20044;-64
2024/01/31 06:09:12;;;;;;;1999.90;999.90;;;;;;;-7.69;78.62;98103.97;5114862;28;20043;-65
2024/01/31 06:11:40;;;;;;;1999.90;999.90;;;;;;;-7.64;78.52;98106.00;5115106;28;20043;-65
2024/01/31 06:14:07;;;;;;;1999.90;999.90;;;;;;;-7.56;78.66;98101.34;5114608;28;20051;-64
2024/01/31 06:16:35;;;;;;;1999.90;999.90;;;;;;;-6.87;80.60;98093.38;5114703;28;20131;-62
2024/01/31 06:19:02;;;;;;;1999.90;999.90;;;;;;;-4.92;77.58;98096.44;5114682;28;20062;-63
2024/01/31 06:21:31;;;;;;;1999.90;999.90;;;;;;;-2.74;68.37;98108.47;5114609;28;20126;-62
2024/01/31 06:23:59;;;;;;;1999.90;999.90;;;;;;;-0.84;60.13;98119.53;5114476;28;20185;-63
2024/01/31 06:26:28;;;;;;;1999.90;999.90;;;;;;;1.07;54.60;98128.44;5114582;28;20868;-64
2024/01/31 06:28:55;;;;;;;1999.90;999.90;;;;;;;2.93;49.47;98106.56;5114696;28;20504;-67
2024/01/31 06:31:27;;;;;;;1999.90;999.90;;;;;;;4.42;45.10;98101.78;5114572;28;20509;-67
2024/01/31 06:33:55;;;;;;;1999.90;999.90;;;;;;;6.02;42.25;98102.25;5114388;28;20043;-65
2024/01/31 06:36:22;;;;;;;1999.90;999.90;;;;;;;7.36;38.39;98104.38;5114475;28;20142;-66
2024/01/31 06:38:51;;;;;;;1999.90;999.90;;;;;;;8.30;35.84;98115.50;5114244;28;20043;-64
2024/01/31 06:41:19;;;;;;;1999.90;999.90;;;;;;;9.32;34.47;98104.50;5114551;28;20047;-65
2024/01/31 06:43:46;;;;;;;1999.90;999.90;;;;;;;10.15;32.44;98101.09;5114359;28;20132;-63
2024/01/31 06:46:16;;;;;;;1999.90;999.90;;;;;;;10.11;31.97;98108.09;5114170;28;20048;-64
2024/01/31 06:48:43;;;;;;;1999.90;999.90;;;;;;;10.93;30.68;98114.09;5114357;28;20063;-67
2024/01/31 06:51:10;;;;;;;1999.90;999.90;;;;;;;11.95;29.55;98109.84;5114701;28;20057;-64
2024/01/31 06:53:41;;;;;;;1999.90;999.90;;;;;;;12.79;28.38;98107.34;5113695;28;20048;-66
2024/01/31 06:56:16;;;;;;;1999.90;999.90;;;;;;;13.43;27.08;98108.50;5114126;28;20051;-64
2024/01/31 06:58:44;;;;;;;1999.90;999.90;;;;;;;14.06;26.72;98120.97;5113897;28;20054;-64
2024/01/31 07:01:15;;;;;;;1999.90;999.90;;;;;;;14.66;25.95;98121.03;5113895;28;20051;-67
2024/01/31 07:03:43;;;;;;;1999.90;999.90;;;;;;;15.14;24.98;98116.97;5113730;28;20378;-65
2024/01/31 07:06:11;;;;;;;1999.90;999.90;;;;;;;15.57;24.41;98118.28;5114029;28;20055;-64
2024/01/31 07:08:39;;;;;;;1999.90;999.90;;;;;;;15.90;23.87;98118.88;5113977;28;20078;-65
2024/01/31 07:11:08;;;;;;;1999.90;999.90;;;;;;;16.38;23.68;98128.72;5113831;28;20048;-65
2024/01/31 07:13:36;;;;;;;1999.90;999.90;;;;;;;16.72;23.31;98129.25;5113757;28;20483;-63
2024/01/31 07:16:08;;;;;;;1999.90;999.90;;;;;;;17.04;22.95;98125.34;5113666;28;20134;-66
2024/01/31 07:18:36;;;;;;;1999.90;999.90;;;;;;;17.40;22.34;98118.69;5113833;28;20402;-65
2024/01/31 07:21:03;;;;;;;1999.90;999.90;;;;;;;17.81;21.72;98122.31;5113589;28;20087;-66
2024/01/31 07:23:30;;;;;;;1999.90;999.90;;;;;;;18.23;21.06;98123.22;5113652;28;20050;-65
2024/01/31 07:25:57;;;;;;;1999.90;999.90;;;;;;;18.71;20.35;98121.97;5113846;28;20056;-65
2024/01/31 07:28:24;;;;;;;1999.90;999.90;;;;;;;19.12;19.63;98119.22;5113594;28;20051;-66
2024/01/31 07:30:53;;;;;;;1999.90;999.90;;;;;;;19.15;20.60;98121.69;5114023;28;20127;-64
2024/01/31 07:33:21;;;;;;;1999.90;999.90;;;;;;;19.35;20.75;98116.38;5113818;28;20046;-67
2024/01/31 07:35:47;;;;;;;1999.90;999.90;;;;;;;19.62;20.34;98118.63;5113445;28;20120;-65
2024/01/31 07:38:14;;;;;;;1999.90;999.90;;;;;;;19.73;20.59;98113.63;5113580;28;20082;-64
2024/01/31 07:40:41;;;;;;;1999.90;999.90;;;;;;;19.89;20.27;98110.16;5113620;28;20066;-63
2024/01/31 07:43:08;;;;;;;1999.90;999.90;;;;;;;20.21;20.70;98107.69;5113389;28;20048;-64
2024/01/31 07:45:35;;;;;;;1999.90;999.90;;;;;;;20.38;19.94;98109.41;5113409;28;20130;-64
2024/01/31 14:28:22;;;;;;;1999.90;999.90;;;;;;;6.11;35.93;97771.47;5074706;28;20273;-68
2024/01/31 14:30:49;;;;;;;1999.90;999.90;;;;;;;6.08;36.46;97763.66;5074022;28;20555;-66
2024/01/31 14:33:16;;;;;;;1999.90;999.90;;;;;;;6.06;36.49;97762.81;5074046;28;20044;-68
2024/01/31 14:35:44;;;;;;;1999.90;999.90;;;;;;;6.08;36.77;97766.25;5073601;28;20078;-66
2024/01/31 14:38:11;;;;;;;1999.90;999.90;;;;;;;6.00;37.15;97758.47;5073900;28;20055;-67
2024/01/31 14:40:38;;;;;;;1999.90;999.90;;;;;;;6.02;36.81;97764.50;5073625;28;20110;-64
2024/01/31 14:43:07;;;;;;;1999.90;999.90;;;;;;;5.91;37.13;97763.66;5073692;28;20480;-65
2024/01/31 14:45:35;;;;;;;1999.90;999.90;;;;;;;5.90;36.74;97764.53;5073638;28;20131;-67
2024/01/31 14:48:02;;;;;;;1999.90;999.90;;;;;;;5.84;37.19;97767.09;5073519;28;20099;-68
2024/01/31 14:50:31;;;;;;;1999.90;999.90;;;;;;;5.80;36.98;97771.41;5073659;28;20049;-68
2024/01/31 14:52:59;;;;;;;1999.90;999.90;;;;;;;5.71;37.61;97764.50;5073320;28;20048;-65
2024/01/31 14:55:26;;;;;;;1999.90;999.90;;;;;;;5.71;37.67;97761.91;5073319;28;20086;-67
2024/01/31 14:57:54;;;;;;;1999.90;999.90;;;;;;;5.68;37.86;97772.28;5073380;28;20487;-64
2024/01/31 15:00:21;;;;;;;1999.90;999.90;;;;;;;5.59;37.60;97764.47;5073339;28;20052;-67
2024/01/31 15:02:50;;;;;;;1999.90;999.90;;;;;;;5.55;37.40;97771.41;5073271;28;20478;-68
2024/01/31 15:05:18;;;;;;;1999.90;999.90;;;;;;;5.48;37.96;97765.31;5073270;28;20055;-66
2024/01/31 15:07:45;;;;;;;1999.90;999.90;;;;;;;5.40;38.48;97762.72;5073228;28;20048;-66
2024/01/31 15:10:12;;;;;;;1999.90;999.90;;;;;;;5.36;38.10;97763.56;5073163;28;20079;-67
2024/01/31 15:12:39;;;;;;;1999.90;999.90;;;;;;;5.30;38.29;97758.38;5073029;28;20079;-68
2024/01/31 15:15:09;;;;;;;1999.90;999.90;;;;;;;5.29;38.19;97761.81;5072972;28;20094;-65
2024/01/31 15:17:36;;;;;;;1999.90;999.90;;;;;;;5.02;38.70;97761.72;5073097;28;20045;-67
2024/01/31 15:20:06;;;;;;;1999.90;999.90;;;;;;;4.73;39.54;97757.28;5072973;28;20048;-66
2024/01/31 15:22:34;;;;;;;1999.90;999.90;;;;;;;4.41;39.89;97760.56;5073059;28;20059;-64
2024/01/31 15:25:02;;;;;;;1999.90;999.90;;;;;;;4.13;40.54;97760.38;5072972;28;20056;-63
2024/01/31 15:27:30;;;;;;;1999.90;999.90;;;;;;;3.89;41.28;97761.94;5101714;28;20444;-65
2024/01/31 15:29:57;;;;;;;1999.90;999.90;;;;;;;3.73;41.56;97760.94;5113578;28;20446;-67
2024/01/31 15:32:24;;;;;;;1999.90;999.90;;;;;;;3.53;41.78;97765.03;5113477;28;20072;-64
2024/01/31 15:34:54;;;;;;;1999.90;999.90;;;;;;;3.25;42.28;97764.78;5113387;28;20090;-68
2024/01/31 15:37:22;;;;;;;1999.90;999.90;;;;;;;3.06;42.78;97761.13;5113711;28;20047;-66
2024/01/31 15:39:50;;;;;;;1999.90;999.90;;;;;;;2.76;43.29;97765.94;5113478;28;20506;-65
2024/01/31 15:42:17;;;;;;;1999.90;999.90;;;;;;;2.55;43.86;97766.50;5113391;28;20043;-69
2024/01/31 15:44:45;;;;;;;1999.90;999.90;;;;;;;2.40;44.08;97762.88;5113432;28;20439;-63
2024/01/31 15:47:16;;;;;;;1999.90;999.90;;;;;;;2.25;44.60;97768.69;5113315;28;20447;-67
2024/01/31 15:49:43;;;;;;;1999.90;999.90;;;;;;;2.10;44.59;97769.31;5113592;28;20541;-65
2024/01/31 15:52:10;;;;;;;1999.90;999.90;;;;;;;1.86;45.17;97762.91;5113206;28;20131;-65
2024/01/31 15:54:39;;;;;;;1999.90;999.90;;;;;;;1.64;45.80;97772.00;5113360;28;20075;-67
2024/01/31 15:57:07;;;;;;;1999.90;999.90;;;;;;;1.49;46.13;97768.31;5113515;28;20047;-63
2024/01/31 15:59:35;;;;;;;1999.90;999.90;;;;;;;1.35;46.58;97768.06;5113050;28;20062;-66
2024/01/31 16:02:03;;;;;;;1999.90;999.90;;;;;;;1.16;46.99;97763.41;5113241;28;20043;-69
2024/01/31 16:04:31;;;;;;;1999.90;999.90;;;;;;;0.97;47.65;97765.63;5113306;28;20050;-67
2024/01/31 16:06:58;;;;;;;1999.90;999.90;;;;;;;0.90;47.72;97768.94;5113157;28;20474;-68
2024/01/31 16:09:26;;;;;;;1999.90;999.90;;;;;;;0.75;48.12;97762.59;5113181;28;20456;-65
2024/01/31 16:11:56;;;;;;;1999.90;999.90;;;;;;;0.66;48.37;97768.44;5113053;28;20043;-68
2024/01/31 16:14:25;;;;;;;1999.90;999.90;;;;;;;0.46;49.09;97768.88;5113283;28;20086;-67
2024/01/31 16:16:52;;;;;;;1999.90;999.90;;;;;;;0.35;49.14;97776.38;5113147;28;20056;-65
2024/01/31 16:19:20;;;;;;;1999.90;999.90;;;;;;;0.29;49.26;97777.91;5113060;28;20051;-64
2024/01/31 16:21:49;;;;;;;1999.90;999.90;;;;;;;0.25;49.43;97783.00;5113243;28;20451;-63
2024/01/31 16:24:16;;;;;;;1999.90;999.90;;;;;;;0.22;49.62;97784.66;5112937;28;20048;-67
2024/01/31 16:26:43;;;;;;;1999.90;999.90;;;;;;;0.23;49.35;97787.25;5112988;28;20063;-64
2024/01/31 16:29:11;;;;;;;1999.90;999.90;;;;;;;0.18;49.86;97788.84;5113150;28;20104;-67
2024/01/31 16:31:41;;;;;;;1999.90;999.90;;;;;;;0.11;50.07;97785.25;5112882;28;20485;-65
2024/01/31 16:34:08;;;;;;;1999.90;999.90;;;;;;;-0.03;50.38;97777.22;5113287;28;20458;-69
2024/01/31 16:36:38;;;;;;;1999.90;999.90;;;;;;;-0.13;50.59;97781.28;5112927;28;20051;-66
2024/01/31 16:39:05;;;;;;;1999.90;999.90;;;;;;;-0.29;51.14;97771.44;5116569;28;20044;-66
2024/01/31 16:41:33;;;;;;;1999.90;999.90;;;;;;;-0.34;51.39;97778.16;5116644;28;20075;-63
2024/01/31 16:44:00;;;;;;;1999.90;999.90;;;;;;;-0.41;51.75;97777.13;5116685;28;20048;-67
2024/01/31 16:46:29;;;;;;;1999.90;999.90;;;;;;;-0.59;52.28;97780.97;5116635;28;20093;-66
2024/01/31 16:48:56;;;;;;;1999.90;999.90;;;;;;;-0.61;52.61;97779.19;5116563;28;20123;-64
2024/01/31 16:51:24;;;;;;;1999.90;999.90;;;;;;;-0.72;53.04;97777.19;5116598;28;20044;-64
2024/01/31 16:54:00;;;;;;;1999.90;999.90;;;;;;;-0.75;53.27;97783.97;5116993;28;20043;-65
2024/01/31 16:56:28;;;;;;;1999.90;999.90;;;;;;;-0.78;53.38;97784.75;5116502;28;20130;-66
2024/01/31 16:58:58;;;;;;;1999.90;999.90;;;;;;;-0.78;53.30;97785.59;5116239;28;20059;-69
2024/01/31 17:01:35;;;;;;;1999.90;999.90;;;;;;;-0.77;53.20;97786.50;5116239;28;20051;-64
2024/01/31 17:04:03;;;;;;;1999.90;999.90;;;;;;;-0.75;53.28;97782.28;5116278;28;20116;-65
2024/01/31 17:06:31;;;;;;;1999.90;999.90;;;;;;;-0.76;52.98;97780.50;5116245;28;20489;-63
2024/01/31 17:08:58;;;;;;;1999.90;999.90;;;;;;;-0.83;53.49;97778.59;5116014;28;20044;-62
2024/01/31 17:11:30;;;;;;;1999.90;999.90;;;;;;;-0.92;53.58;97776.66;5116426;28;20062;-65
2024/01/31 17:13:57;;;;;;;1999.90;999.90;;;;;;;-1.03;54.22;97781.50;5116098;28;20097;-66
2024/01/31 17:16:26;;;;;;;1999.90;999.90;;;;;;;-1.02;54.55;97780.69;5115870;28;20047;-65
2024/01/31 17:18:55;;;;;;;1999.90;999.90;;;;;;;-1.05;54.14;97781.44;5115844;28;20075;-65
2024/01/31 17:21:22;;;;;;;1999.90;999.90;;;;;;;-1.06;54.03;97786.53;5115858;28;20093;-65
2024/01/31 17:23:50;;;;;;;1999.90;999.90;;;;;;;-1.07;53.74;97789.94;5115828;28;20051;-66
2024/01/31 17:26:17;;;;;;;1999.90;999.90;;;;;;;-1.08;53.78;97796.78;5115911;28;20063;-63
2024/01/31 17:28:46;;;;;;;1999.90;999.90;;;;;;;-1.10;53.87;97797.56;5115811;28;20058;-66
2024/01/31 17:31:14;;;;;;;1999.90;999.90;;;;;;;-1.21;54.54;97803.25;5115797;28;20451;-66
2024/01/31 17:33:53;;;;;;;1999.90;999.90;;;;;;;-1.31;55.29;97807.28;5115693;28;20093;-62
2024/01/31 17:36:22;;;;;;;1999.90;999.90;;;;;;;-1.48;55.38;97805.91;5115497;28;20055;-63
2024/01/31 17:38:51;;;;;;;1999.90;999.90;;;;;;;-1.77;56.17;97806.75;5115617;28;20051;-65
2024/01/31 17:41:19;;;;;;;1999.90;999.90;;;;;;;-1.91;56.83;97803.72;5115378;28;20528;-66